Time;durP1;ratioP1;P1;durP2;ratioP2;P2;SDS_P1;SDS_P2;PMS_P1;PMS_P2;Temp;Humidity;BMP_temperature;BMP_pressure;BME280_temperature;BME280_humidity;BME280_pressure;Samples;Min_cycle;Max_cycle;Signal;HPM_P1;HPM_P2
2022/04/29 00:02:19;;;;;;;4.80;4.40;;;;;;;;;;4963078;28;20802;-78
2022/04/29 00:04:46;;;;;;;6.13;4.68;;;;;;;;;;4964707;28;20540;-79
2022/04/29 00:07:15;;;;;;;5.07;4.57;;;;;;;;;;4966173;28;20042;-80
2022/04/29 00:09:42;;;;;;;5.22;4.82;;;;;;;;;;4952530;28;20640;-81
2022/04/29 00:12:10;;;;;;;4.97;4.50;;;;;;;;;;4965424;28;20499;-81
2022/04/29 00:14:37;;;;;;;4.95;4.40;;;;;;;;;;4943478;28;20058;-81
2022/04/29 00:17:05;;;;;;;4.63;4.22;;;;;;;;;;4968526;28;20497;-80
2022/04/29 00:19:33;;;;;;;4.93;4.53;;;;;;;;;;4968617;28;20066;-81
2022/04/29 00:22:01;;;;;;;4.95;4.55;;;;;;;;;;4952179;28;20133;-80
2022/04/29 00:24:28;;;;;;;4.90;4.47;;;;;;;;;;4966456;28;20045;-81
2022/04/29 00:26:56;;;;;;;4.82;4.43;;;;;;;;;;4951331;28;20611;-81
2022/04/29 00:29:23;;;;;;;4.70;4.30;;;;;;;;;;4936868;28;20122;-81
2022/04/29 00:31:51;;;;;;;4.90;4.50;;;;;;;;;;4965289;28;20062;-80
2022/04/29 00:34:18;;;;;;;5.28;4.88;;;;;;;;;;4968839;28;20057;-81
2022/04/29 00:36:47;;;;;;;5.25;4.75;;;;;;;;;;4964526;28;20054;-79
2022/04/29 00:39:14;;;;;;;6.60;4.78;;;;;;;;;;4944869;28;20057;-79
2022/04/29 00:41:44;;;;;;;4.38;3.97;;;;;;;;;;4945707;28;20053;-81
2022/04/29 00:44:12;;;;;;;5.15;4.70;;;;;;;;;;4967531;28;20523;-80
2022/04/29 00:46:42;;;;;;;4.85;4.35;;;;;;;;;;4931862;28;20062;-81
2022/04/29 00:49:11;;;;;;;4.88;4.45;;;;;;;;;;4961135;28;20050;-80
2022/04/29 00:51:39;;;;;;;4.80;4.40;;;;;;;;;;4951099;28;20128;-82
2022/04/29 00:54:12;;;;;;;5.25;4.82;;;;;;;;;;4934622;28;20050;-82
2022/04/29 00:56:41;;;;;;;4.90;4.50;;;;;;;;;;4947850;28;20517;-81
2022/04/29 00:59:17;;;;;;;4.43;4.13;;;;;;;;;;4970842;28;20504;-81
2022/04/29 01:01:45;;;;;;;4.80;4.40;;;;;;;;;;4929508;28;20114;-80
2022/04/29 01:04:17;;;;;;;4.63;4.32;;;;;;;;;;4950402;28;20061;-79
2022/04/29 01:06:44;;;;;;;4.95;4.55;;;;;;;;;;4948027;28;20054;-82
2022/04/29 01:09:13;;;;;;;6.93;4.60;;;;;;;;;;4945516;28;20053;-81
2022/04/29 01:11:40;;;;;;;4.88;4.47;;;;;;;;;;4942773;28;20099;-80
2022/04/29 01:14:08;;;;;;;5.20;4.80;;;;;;;;;;4944102;28;20051;-79
2022/04/29 01:16:35;;;;;;;5.00;4.60;;;;;;;;;;4945515;28;20758;-79
2022/04/29 01:19:03;;;;;;;4.88;4.47;;;;;;;;;;4945288;28;20089;-80
2022/04/29 01:21:30;;;;;;;5.47;4.90;;;;;;;;;;4964726;28;20035;-81
2022/04/29 01:23:58;;;;;;;4.88;4.32;;;;;;;;;;4953370;28;20740;-81
2022/04/29 01:26:25;;;;;;;5.10;4.70;;;;;;;;;;4949021;28;20108;-81
2022/04/29 01:28:53;;;;;;;6.45;5.53;;;;;;;;;;4932672;28;20069;-81
2022/04/29 01:31:23;;;;;;;5.30;4.90;;;;;;;;;;4925915;28;20465;-81
2022/04/29 01:33:52;;;;;;;5.63;4.93;;;;;;;;;;4949775;28;20070;-81
2022/04/29 01:36:19;;;;;;;7.28;5.70;;;;;;;;;;4948243;28;20302;-80
2022/04/29 01:38:49;;;;;;;7.40;5.53;;;;;;;;;;4949962;28;20043;-83
2022/04/29 01:41:17;;;;;;;6.32;5.72;;;;;;;;;;4947050;28;20105;-81
2022/04/29 01:43:46;;;;;;;5.82;5.32;;;;;;;;;;4949759;28;20046;-81
2022/04/29 01:46:14;;;;;;;5.40;5.00;;;;;;;;;;4950321;28;20459;-80
2022/04/29 01:48:56;;;;;;;6.18;5.63;;;;;;;;;;4951136;28;20047;-81
2022/04/29 01:51:36;;;;;;;6.28;4.80;;;;;;;;;;4962608;28;20053;-80
2022/04/29 01:54:05;;;;;;;5.03;4.63;;;;;;;;;;4949290;28;20046;-82
2022/04/29 01:56:32;;;;;;;6.00;5.43;;;;;;;;;;4945714;28;20062;-79
2022/04/29 01:59:07;;;;;;;5.43;4.93;;;;;;;;;;4945954;28;20047;-82
2022/04/29 02:01:50;;;;;;;5.57;5.07;;;;;;;;;;4950255;28;20143;-80
2022/04/29 02:04:18;;;;;;;6.88;5.30;;;;;;;;;;4951419;28;20062;-79
2022/04/29 02:06:45;;;;;;;6.15;5.57;;;;;;;;;;4949206;28;20049;-81
2022/04/29 02:09:13;;;;;;;5.90;5.40;;;;;;;;;;4951584;28;20434;-80
2022/04/29 02:12:03;;;;;;;11.57;6.20;;;;;;;;;;4971438;28;20520;-79
2022/04/29 02:14:47;;;;;;;6.60;5.15;;;;;;;;;;4971082;28;20538;-80
2022/04/29 02:17:16;;;;;;;6.85;6.20;;;;;;;;;;4951765;28;20049;-81
2022/04/29 02:19:44;;;;;;;6.28;5.65;;;;;;;;;;4963755;28;20042;-80
2022/04/29 02:22:11;;;;;;;6.38;5.78;;;;;;;;;;4970893;28;20074;-82
2022/04/29 02:24:39;;;;;;;7.15;6.45;;;;;;;;;;4946525;28;20074;-80
2022/04/29 02:27:07;;;;;;;9.07;6.25;;;;;;;;;;4963705;28;20393;-82
2022/04/29 02:29:37;;;;;;;6.93;6.20;;;;;;;;;;4949410;28;20157;-80
2022/04/29 02:32:12;;;;;;;10.68;6.80;;;;;;;;;;4934665;28;20493;-80
2022/04/29 02:34:41;;;;;;;7.95;6.47;;;;;;;;;;4948846;28;20058;-83
2022/04/29 02:37:10;;;;;;;9.25;6.55;;;;;;;;;;4968747;28;21352;-79
2022/04/29 02:39:39;;;;;;;8.32;6.60;;;;;;;;;;4951237;28;20501;-82
2022/04/29 02:42:07;;;;;;;7.40;6.40;;;;;;;;;;4948028;28;20046;-80
2022/04/29 02:44:38;;;;;;;8.70;5.93;;;;;;;;;;4933952;28;20047;-80
2022/04/29 02:47:07;;;;;;;7.32;6.38;;;;;;;;;;4953836;28;20146;-81
2022/04/29 02:49:35;;;;;;;7.78;5.95;;;;;;;;;;4938078;28;20046;-80
2022/04/29 02:52:03;;;;;;;6.65;5.97;;;;;;;;;;4951098;28;20125;-80
2022/04/29 02:54:30;;;;;;;12.32;6.97;;;;;;;;;;4954156;28;20047;-80
2022/04/29 02:56:59;;;;;;;10.00;7.22;;;;;;;;;;4969645;28;20074;-80
2022/04/29 02:59:37;;;;;;;8.18;6.50;;;;;;;;;;4939970;28;20049;-82
2022/04/29 03:02:06;;;;;;;7.85;6.57;;;;;;;;;;4946930;28;20098;-81
2022/04/29 03:04:35;;;;;;;10.07;7.30;;;;;;;;;;4950880;28;20240;-81
2022/04/29 03:07:02;;;;;;;8.35;6.95;;;;;;;;;;4971372;28;20046;-80
2022/04/29 03:09:47;;;;;;;6.65;5.95;;;;;;;;;;4964931;28;20077;-80
2022/04/29 03:12:15;;;;;;;7.75;6.07;;;;;;;;;;4946917;28;20134;-80
2022/04/29 03:14:46;;;;;;;7.38;6.60;;;;;;;;;;4952872;28;20093;-80
2022/04/29 03:20:00;;;;;;;8.25;6.90;;;;;;;;;;4969787;28;20051;-80
2022/04/29 03:22:29;;;;;;;7.47;6.70;;;;;;;;;;4973065;28;20113;-81
2022/04/29 03:24:56;;;;;;;8.23;5.88;;;;;;;;;;4972633;28;20082;-81
2022/04/29 03:27:24;;;;;;;8.52;6.30;;;;;;;;;;4941808;28;20622;-82
2022/04/29 03:29:51;;;;;;;6.00;5.50;;;;;;;;;;4955536;28;20497;-80
2022/04/29 03:32:20;;;;;;;7.97;6.60;;;;;;;;;;4971933;28;20249;-81
2022/04/29 03:35:02;;;;;;;6.95;5.93;;;;;;;;;;4952348;28;20529;-81
2022/04/29 03:37:31;;;;;;;13.60;6.15;;;;;;;;;;4934225;28;20055;-82
2022/04/29 03:39:58;;;;;;;7.35;5.72;;;;;;;;;;4953991;28;20050;-81
2022/04/29 03:42:26;;;;;;;6.40;5.47;;;;;;;;;;4969405;28;20043;-81
2022/04/29 03:44:54;;;;;;;6.13;5.63;;;;;;;;;;4955516;28;20432;-81
2022/04/29 03:47:22;;;;;;;6.20;5.60;;;;;;;;;;4947624;28;20741;-81
2022/04/29 03:50:15;;;;;;;6.90;5.78;;;;;;;;;;4954806;28;20269;-81
2022/04/29 03:53:03;;;;;;;7.15;6.40;;;;;;;;;;4968697;28;21025;-83
2022/04/29 03:55:35;;;;;;;7.22;6.13;;;;;;;;;;4939589;28;20088;-81
2022/04/29 03:58:03;;;;;;;6.55;5.88;;;;;;;;;;4937091;28;20079;-81
2022/04/29 04:00:40;;;;;;;6.10;5.60;;;;;;;;;;4971566;28;20127;-81
2022/04/29 04:03:09;;;;;;;7.80;6.68;;;;;;;;;;4955856;28;20066;-81
2022/04/29 04:06:49;;;;;;;8.52;6.30;;;;;;;;;;4958567;28;20416;-82
2022/04/29 04:08:25;;;;;;;8.18;6.35;;;;;;;;;;4947766;28;20471;-81
2022/04/29 04:10:52;;;;;;;8.05;7.25;;;;;;;;;;4934269;28;20050;-81
2022/04/29 04:13:20;;;;;;;5.88;5.38;;;;;;;;;;4969031;28;20039;-81
2022/04/29 04:15:55;;;;;;;5.95;5.45;;;;;;;;;;4954589;28;20058;-81
2022/04/29 04:18:22;;;;;;;5.25;4.85;;;;;;;;;;4952411;28;20073;-81
2022/04/29 04:20:51;;;;;;;5.35;4.85;;;;;;;;;;4954830;28;20045;-81
2022/04/29 04:23:18;;;;;;;7.40;5.78;;;;;;;;;;4969909;28;20082;-83
2022/04/29 04:25:46;;;;;;;6.18;5.47;;;;;;;;;;4940069;28;20042;-81
2022/04/29 04:28:16;;;;;;;9.63;6.00;;;;;;;;;;4942822;28;20066;-81
2022/04/29 04:30:55;;;;;;;6.15;5.55;;;;;;;;;;4940901;28;20212;-83
2022/04/29 04:33:33;;;;;;;5.82;5.32;;;;;;;;;;4953648;28;20049;-79
2022/04/29 04:36:01;;;;;;;6.72;6.13;;;;;;;;;;4933478;28;20419;-81
2022/04/29 04:42:03;;;;;;;7.95;6.80;;;;;;;;;;4984215;28;20560;-78
2022/04/29 04:50:21;;;;;;;6.97;6.38;;;;;;;;;;4973882;28;20381;-78
2022/04/29 04:53:57;;;;;;;6.28;5.68;;;;;;;;;;4972933;28;20050;-78
2022/04/29 04:57:18;;;;;;;7.13;6.45;;;;;;;;;;4962779;28;20145;-77
2022/04/29 05:00:38;;;;;;;;;;;;;;;;;;;;;
2022/04/29 05:04:13;;;;;;;6.97;5.57;;;;;;;;;;4954556;28;20072;-77
2022/04/29 05:08:28;;;;;;;6.40;5.78;;;;;;;;;;4975637;28;20109;-77
2022/04/29 05:12:14;;;;;;;;;;;;;;;;;;;;;
2022/04/29 05:16:27;;;;;;;7.05;6.38;;;;;;;;;;4980213;28;20129;-78
2022/04/29 05:20:15;;;;;;;7.45;6.75;;;;;;;;;;4973790;28;20085;-77
2022/04/29 05:28:13;;;;;;;9.18;8.30;;;;;;;;;;5051160;22;20069;-78
2022/04/29 05:57:19;;;;;;;6.70;6.20;;;;;;;;;;4969523;23;20080;-77
2022/04/29 06:26:47;;;;;;;7.82;6.72;;;;;;;;;;4842500;29;20048;-78
2022/04/29 06:35:19;;;;;;;8.65;7.85;;;;;;;;;;4807230;29;20144;-78
2022/04/29 06:39:10;;;;;;;12.63;8.35;;;;;;;;;;4786421;29;20051;-77
2022/04/29 06:42:45;;;;;;;10.00;8.95;;;;;;;;;;4738960;30;20047;-78
2022/04/29 06:45:56;;;;;;;11.05;7.88;;;;;;;;;;4827040;29;20053;-78
2022/04/29 06:48:58;;;;;;;13.75;10.50;;;;;;;;;;4876095;28;20060;-77
2022/04/29 06:56:25;;;;;;;9.77;8.88;;;;;;;;;;4913798;28;20063;-77
2022/04/29 07:04:11;;;;;;;8.52;7.72;;;;;;;;;;4833654;29;20199;-78
2022/04/29 07:16:58;;;;;;;6.75;6.15;;;;;;;;;;4886634;29;20116;-78
2022/04/29 07:25:02;;;;;;;7.28;6.53;;;;;;;;;;4838552;29;20055;-78
2022/04/29 07:32:39;;;;;;;6.20;5.70;;;;;;;;;;4852458;29;20029;-78
2022/04/29 07:48:01;;;;;;;5.55;4.97;;;;;;;;;;4896861;29;20143;-78
2022/04/29 07:50:58;;;;;;;5.80;5.38;;;;;;;;;;4900585;28;20084;-78
2022/04/29 07:53:53;;;;;;;6.55;5.90;;;;;;;;;;4981286;28;20045;-79
2022/04/29 07:56:54;;;;;;;5.93;5.43;;;;;;;;;;4976595;28;20053;-78
2022/04/29 07:59:21;;;;;;;6.22;5.65;;;;;;;;;;4990867;28;20038;-78
2022/04/29 08:01:57;;;;;;;5.72;5.15;;;;;;;;;;4985694;28;20513;-78
2022/04/29 08:04:25;;;;;;;6.32;5.82;;;;;;;;;;5006726;28;20062;-78
2022/04/29 08:06:52;;;;;;;10.05;9.05;;;;;;;;;;5004417;28;20049;-78
2022/04/29 08:09:32;;;;;;;5.38;4.88;;;;;;;;;;5010788;28;20100;-80
2022/04/29 08:12:06;;;;;;;5.95;5.13;;;;;;;;;;5000756;28;20137;-79
2022/04/29 08:14:34;;;;;;;5.68;5.10;;;;;;;;;;4988228;28;20462;-79
2022/04/29 08:17:42;;;;;;;5.78;4.60;;;;;;;;;;5057039;23;20501;-79
2022/04/29 08:20:10;;;;;;;4.55;4.20;;;;;;;;;;5028592;28;20033;-78
2022/04/29 08:22:42;;;;;;;6.18;4.65;;;;;;;;;;4973460;28;20494;-79
2022/04/29 08:25:10;;;;;;;4.80;4.45;;;;;;;;;;4974237;28;20046;-79
2022/04/29 08:27:38;;;;;;;6.50;4.68;;;;;;;;;;4993472;28;20042;-79
2022/04/29 08:30:06;;;;;;;6.68;5.00;;;;;;;;;;4961957;28;20081;-79
2022/04/29 08:32:38;;;;;;;6.72;4.57;;;;;;;;;;4995943;28;20132;-77
2022/04/29 08:35:09;;;;;;;7.55;4.20;;;;;;;;;;5011860;28;20045;-77
2022/04/29 08:37:37;;;;;;;6.70;5.15;;;;;;;;;;4973163;28;20038;-77
2022/04/29 08:40:06;;;;;;;5.68;5.05;;;;;;;;;;4956591;28;20105;-78
2022/04/29 08:42:37;;;;;;;6.25;4.90;;;;;;;;;;5011696;28;20049;-78
2022/04/29 08:45:09;;;;;;;5.85;5.35;;;;;;;;;;5012318;28;20052;-78
2022/04/29 08:47:55;;;;;;;5.65;5.13;;;;;;;;;;4960444;28;20073;-79
2022/04/29 08:50:41;;;;;;;;;;;;;;;;;;;;;
2022/04/29 08:53:12;;;;;;;6.95;4.85;;;;;;;;;;5018722;28;20128;-79
2022/04/29 08:58:38;;;;;;;5.88;4.65;;;;;;;;;;4994034;28;20347;-78
2022/04/29 09:01:08;;;;;;;6.15;4.57;;;;;;;;;;4966483;28;20399;-78
2022/04/29 09:03:36;;;;;;;4.57;4.10;;;;;;;;;;4961349;28;20038;-78
2022/04/29 09:06:04;;;;;;;5.70;5.05;;;;;;;;;;5016037;28;20052;-78
2022/04/29 09:08:38;;;;;;;4.40;4.00;;;;;;;;;;4978760;28;20186;-79
2022/04/29 09:11:06;;;;;;;4.70;4.30;;;;;;;;;;4978939;28;20593;-79
2022/04/29 09:13:37;;;;;;;4.97;4.55;;;;;;;;;;5008428;28;20133;-78
2022/04/29 09:16:12;;;;;;;8.07;4.80;;;;;;;;;;4989058;28;20054;-79
2022/04/29 09:18:48;;;;;;;5.22;4.65;;;;;;;;;;4974802;28;20510;-78
2022/04/29 09:21:18;;;;;;;4.90;4.38;;;;;;;;;;4983556;28;20440;-80
2022/04/29 09:23:57;;;;;;;5.70;4.50;;;;;;;;;;4999016;28;20113;-79
2022/04/29 09:26:42;;;;;;;7.75;4.50;;;;;;;;;;5009510;28;20119;-79
2022/04/29 09:29:34;;;;;;;4.65;4.25;;;;;;;;;;4994646;28;20042;-78
2022/04/29 09:32:30;;;;;;;4.53;4.13;;;;;;;;;;5027309;28;20033;-80
2022/04/29 09:35:42;;;;;;;5.90;3.88;;;;;;;;;;5034184;28;20072;-79
2022/04/29 09:40:58;;;;;;;12.10;4.50;;;;;;;;;;5012940;28;20060;-80
2022/04/29 09:43:35;;;;;;;4.25;3.67;;;;;;;;;;4997865;28;20152;-79
2022/04/29 09:46:29;;;;;;;3.60;3.30;;;;;;;;;;4996155;28;20499;-78
2022/04/29 09:48:56;;;;;;;4.63;3.90;;;;;;;;;;5008993;28;20050;-78
2022/04/29 09:51:42;;;;;;;4.40;4.00;;;;;;;;;;5014474;28;20516;-80
2022/04/29 09:54:09;;;;;;;4.00;3.67;;;;;;;;;;4994303;28;20042;-79
2022/04/29 09:56:39;;;;;;;4.70;4.07;;;;;;;;;;4976760;28;20449;-78
2022/04/29 09:59:08;;;;;;;4.68;4.20;;;;;;;;;;4975385;28;20276;-78
2022/04/29 10:01:35;;;;;;;3.97;3.67;;;;;;;;;;4963378;28;20065;-79
2022/04/29 10:04:04;;;;;;;4.57;4.20;;;;;;;;;;4988316;28;20121;-78
2022/04/29 10:06:33;;;;;;;4.35;3.95;;;;;;;;;;5000979;28;20514;-77
2022/04/29 10:09:00;;;;;;;4.57;4.18;;;;;;;;;;4959896;28;20406;-78
2022/04/29 10:11:28;;;;;;;5.20;4.28;;;;;;;;;;4996602;28;20494;-79
2022/04/29 10:13:58;;;;;;;3.60;3.38;;;;;;;;;;4994216;28;20060;-79
2022/04/29 10:16:33;;;;;;;5.90;4.50;;;;;;;;;;5010364;28;20066;-79
2022/04/29 10:22:34;;;;;;;4.30;4.00;;;;;;;;;;4996670;28;20406;-79
2022/04/29 10:25:05;;;;;;;6.25;4.30;;;;;;;;;;4980731;28;20034;-79
2022/04/29 10:27:33;;;;;;;4.57;4.00;;;;;;;;;;4976628;28;20081;-79
2022/04/29 10:30:01;;;;;;;5.60;4.25;;;;;;;;;;4990021;28;20411;-80
2022/04/29 10:32:28;;;;;;;6.63;3.80;;;;;;;;;;5019285;28;20045;-80
2022/04/29 10:34:56;;;;;;;6.70;4.50;;;;;;;;;;4999303;28;20048;-78
2022/04/29 10:37:32;;;;;;;5.40;4.47;;;;;;;;;;5006384;23;20042;-79
2022/04/29 10:40:08;;;;;;;5.45;3.58;;;;;;;;;;4992395;28;20077;-79
2022/04/29 10:43:13;;;;;;;4.05;3.75;;;;;;;;;;4996077;28;20053;-80
2022/04/29 10:45:59;;;;;;;4.30;4.00;;;;;;;;;;4977770;28;20042;-78
2022/04/29 10:48:31;;;;;;;4.13;3.75;;;;;;;;;;4972773;28;20494;-78
2022/04/29 10:51:17;;;;;;;4.13;3.83;;;;;;;;;;4991264;28;20180;-78
2022/04/29 10:54:08;;;;;;;4.20;3.90;;;;;;;;;;4991602;28;20132;-78
2022/04/29 10:57:08;;;;;;;4.60;3.50;;;;;;;;;;4991696;28;20409;-79
2022/04/29 10:59:50;;;;;;;5.95;3.95;;;;;;;;;;4972778;28;20038;-78
2022/04/29 11:02:26;;;;;;;3.00;2.75;;;;;;;;;;4992306;28;20384;-78
2022/04/29 11:04:53;;;;;;;5.32;3.05;;;;;;;;;;4991487;28;20450;-78
2022/04/29 11:07:36;;;;;;;3.95;3.55;;;;;;;;;;4991426;28;20393;-79
2022/04/29 11:10:08;;;;;;;4.00;3.38;;;;;;;;;;4991515;28;20050;-79
2022/04/29 11:12:37;;;;;;;3.80;3.50;;;;;;;;;;4975302;28;20042;-80
2022/04/29 11:15:25;;;;;;;3.90;3.60;;;;;;;;;;4975877;28;20430;-79
2022/04/29 11:18:14;;;;;;;4.82;3.92;;;;;;;;;;5010899;28;20046;-79
2022/04/29 11:20:43;;;;;;;3.65;3.35;;;;;;;;;;5016176;28;20042;-79
2022/04/29 11:25:58;;;;;;;6.25;3.42;;;;;;;;;;4979104;28;20062;-79
2022/04/29 11:28:52;;;;;;;4.97;4.38;;;;;;;;;;4986116;28;20208;-78
2022/04/29 11:31:48;;;;;;;3.60;3.30;;;;;;;;;;4971309;28;20046;-79
2022/04/29 11:34:16;;;;;;;4.93;4.15;;;;;;;;;;4972073;28;20053;-78
2022/04/29 11:36:44;;;;;;;3.25;3.00;;;;;;;;;;4984002;28;20042;-78
2022/04/29 11:39:19;;;;;;;3.35;3.05;;;;;;;;;;4969995;28;20434;-79
2022/04/29 11:41:59;;;;;;;2.92;2.80;;;;;;;;;;4986957;28;20133;-78
2022/04/29 11:44:38;;;;;;;3.72;3.35;;;;;;;;;;4970341;28;20051;-79
2022/04/29 11:47:07;;;;;;;4.05;3.13;;;;;;;;;;4954741;28;20128;-78
2022/04/29 11:49:40;;;;;;;4.88;3.28;;;;;;;;;;4983985;28;20053;-79
2022/04/29 11:52:17;;;;;;;4.07;3.38;;;;;;;;;;5004492;28;20057;-78
2022/04/29 11:55:03;;;;;;;3.33;3.03;;;;;;;;;;4994160;28;20038;-80
2022/04/29 11:57:35;;;;;;;3.88;3.58;;;;;;;;;;4972564;28;20046;-79
2022/04/29 12:00:06;;;;;;;8.52;3.50;;;;;;;;;;4961928;28;20046;-80
2022/04/29 12:02:46;;;;;;;2.80;2.60;;;;;;;;;;4960938;28;20418;-80
2022/04/29 12:05:14;;;;;;;3.58;3.28;;;;;;;;;;4977378;28;20050;-79
2022/04/29 12:07:45;;;;;;;3.55;3.25;;;;;;;;;;5014201;28;20452;-80
2022/04/29 12:10:19;;;;;;;4.07;3.10;;;;;;;;;;4993275;28;20046;-79
2022/04/29 12:12:47;;;;;;;3.42;3.13;;;;;;;;;;4988618;28;20081;-79
2022/04/29 12:15:21;;;;;;;4.13;3.00;;;;;;;;;;4980763;28;20093;-79
2022/04/29 12:17:48;;;;;;;4.97;2.83;;;;;;;;;;4967516;28;20137;-80
2022/04/29 12:20:17;;;;;;;4.03;3.50;;;;;;;;;;4976962;28;20781;-80
2022/04/29 12:22:47;;;;;;;4.43;3.30;;;;;;;;;;4961063;28;20062;-82
2022/04/29 12:25:20;;;;;;;4.90;3.58;;;;;;;;;;4974392;28;20070;-82
2022/04/29 12:28:07;;;;;;;3.60;3.30;;;;;;;;;;4954726;28;20046;-81
2022/04/29 12:36:09;;;;;;;3.45;2.80;;;;;;;;;;4973181;28;20039;-81
2022/04/29 12:38:37;;;;;;;3.13;2.92;;;;;;;;;;4986704;28;20054;-82
2022/04/29 12:41:24;;;;;;;3.20;3.00;;;;;;;;;;4954411;28;20054;-80
2022/04/29 12:43:53;;;;;;;3.35;3.13;;;;;;;;;;4952600;28;20054;-80
2022/04/29 12:46:22;;;;;;;4.68;2.90;;;;;;;;;;4922339;28;20141;-79
2022/04/29 12:48:53;;;;;;;5.72;3.45;;;;;;;;;;4976247;28;20422;-80
2022/04/29 12:51:28;;;;;;;6.13;3.30;;;;;;;;;;4959836;28;20238;-79
2022/04/29 12:53:56;;;;;;;3.00;2.80;;;;;;;;;;4978139;28;20101;-80
2022/04/29 12:56:31;;;;;;;5.18;2.80;;;;;;;;;;4958966;28;20045;-79
2022/04/29 12:59:00;;;;;;;3.53;2.60;;;;;;;;;;4979561;28;20127;-79
2022/04/29 13:01:38;;;;;;;2.92;2.72;;;;;;;;;;4960568;28;20114;-79
2022/04/29 13:04:27;;;;;;;5.68;3.05;;;;;;;;;;4943904;28;20055;-79
2022/04/29 13:07:12;;;;;;;3.33;3.03;;;;;;;;;;4977170;28;20447;-79
2022/04/29 13:09:39;;;;;;;3.40;3.08;;;;;;;;;;4980295;28;20121;-80
2022/04/29 13:12:09;;;;;;;5.25;3.00;;;;;;;;;;4971113;28;20096;-80
2022/04/29 13:14:47;;;;;;;5.18;3.20;;;;;;;;;;4960509;28;20589;-79
2022/04/29 13:17:14;;;;;;;2.80;2.60;;;;;;;;;;4950710;28;20050;-79
2022/04/29 13:19:42;;;;;;;3.35;2.90;;;;;;;;;;4980499;28;20113;-78
2022/04/29 13:22:11;;;;;;;3.90;3.30;;;;;;;;;;4978170;28;20325;-82
2022/04/29 13:24:39;;;;;;;4.22;2.85;;;;;;;;;;4959096;28;20295;-79
2022/04/29 13:27:09;;;;;;;3.88;2.97;;;;;;;;;;4965329;28;20565;-79
2022/04/29 13:29:36;;;;;;;4.40;2.70;;;;;;;;;;4958813;28;20041;-80
2022/04/29 13:32:04;;;;;;;4.45;4.05;;;;;;;;;;4978943;28;20046;-80
2022/04/29 13:34:31;;;;;;;9.43;5.40;;;;;;;;;;4973819;28;20172;-80
2022/04/29 13:36:59;;;;;;;5.03;4.15;;;;;;;;;;4980631;28;20100;-79
2022/04/29 13:39:26;;;;;;;4.45;3.80;;;;;;;;;;4957329;28;20138;-78
2022/04/29 13:42:08;;;;;;;4.70;2.85;;;;;;;;;;4962276;28;20046;-79
2022/04/29 13:44:36;;;;;;;4.80;3.15;;;;;;;;;;4974312;28;20431;-79
2022/04/29 13:47:04;;;;;;;11.63;3.50;;;;;;;;;;4960960;28;20046;-79
2022/04/29 13:49:32;;;;;;;3.10;2.90;;;;;;;;;;4980878;28;20085;-78
2022/04/29 13:53:07;;;;;;;3.65;2.80;;;;;;;;;;4986105;28;20155;-79
2022/04/29 13:54:47;;;;;;;3.08;2.88;;;;;;;;;;4984411;28;20108;-80
2022/04/29 13:57:14;;;;;;;7.75;3.00;;;;;;;;;;4954076;28;20054;-79
2022/04/29 13:59:42;;;;;;;2.90;2.70;;;;;;;;;;4979605;28;20046;-80
2022/04/29 14:02:10;;;;;;;3.03;2.83;;;;;;;;;;4950657;28;20463;-80
2022/04/29 14:04:38;;;;;;;5.93;3.20;;;;;;;;;;4982441;28;20060;-79
2022/04/29 14:07:06;;;;;;;4.60;3.17;;;;;;;;;;4961389;28;20161;-79
2022/04/29 14:09:33;;;;;;;4.50;2.80;;;;;;;;;;4972903;28;20053;-79
2022/04/29 14:12:01;;;;;;;3.63;3.38;;;;;;;;;;4943984;28;20080;-78
2022/04/29 14:14:29;;;;;;;5.75;3.90;;;;;;;;;;4978958;28;20076;-78
2022/04/29 14:16:56;;;;;;;4.32;2.88;;;;;;;;;;4979368;28;20459;-77
2022/04/29 14:19:24;;;;;;;3.10;2.90;;;;;;;;;;4978996;28;20151;-79
2022/04/29 14:21:51;;;;;;;3.20;2.70;;;;;;;;;;4972489;28;20039;-79
2022/04/29 14:24:18;;;;;;;3.47;2.70;;;;;;;;;;4962413;28;20042;-79
2022/04/29 14:26:46;;;;;;;2.95;2.75;;;;;;;;;;4978875;28;20294;-81
2022/04/29 14:29:14;;;;;;;3.33;3.03;;;;;;;;;;4967900;28;20050;-78
2022/04/29 14:31:41;;;;;;;3.85;3.47;;;;;;;;;;4965101;28;20049;-78
2022/04/29 14:34:09;;;;;;;4.50;3.58;;;;;;;;;;4950321;28;20074;-79
2022/04/29 14:36:36;;;;;;;3.80;2.95;;;;;;;;;;4970821;28;20081;-78
2022/04/29 14:39:04;;;;;;;4.05;2.92;;;;;;;;;;4962340;28;20456;-78
2022/04/29 14:41:31;;;;;;;5.65;3.10;;;;;;;;;;4959012;28;20483;-79
2022/04/29 14:43:59;;;;;;;2.95;2.72;;;;;;;;;;4964975;28;20050;-80
2022/04/29 14:46:29;;;;;;;8.98;2.95;;;;;;;;;;4961919;28;20517;-79
2022/04/29 14:48:57;;;;;;;3.10;2.80;;;;;;;;;;4978306;28;20314;-79
2022/04/29 14:51:24;;;;;;;3.17;2.97;;;;;;;;;;4938496;28;20148;-79
2022/04/29 14:53:55;;;;;;;3.47;2.90;;;;;;;;;;4970115;28;20078;-81
2022/04/29 14:56:22;;;;;;;5.37;3.40;;;;;;;;;;4972437;28;20529;-79
2022/04/29 14:58:50;;;;;;;3.03;2.75;;;;;;;;;;4957626;28;20277;-80
2022/04/29 15:01:18;;;;;;;3.80;2.97;;;;;;;;;;4969996;28;20050;-80
2022/04/29 15:03:50;;;;;;;4.78;3.13;;;;;;;;;;4954818;28;20049;-80
2022/04/29 15:06:19;;;;;;;5.32;3.00;;;;;;;;;;4940346;28;20137;-79
2022/04/29 15:08:47;;;;;;;3.88;3.58;;;;;;;;;;4964078;28;20269;-79
2022/04/29 15:17:14;;;;;;;3.63;3.22;;;;;;;;;;4945719;28;20050;-79
2022/04/29 15:19:42;;;;;;;3.40;3.20;;;;;;;;;;4980021;28;20054;-80
2022/04/29 15:22:10;;;;;;;4.97;3.33;;;;;;;;;;4976583;28;20480;-78
2022/04/29 15:24:38;;;;;;;5.22;3.63;;;;;;;;;;4978208;28;20096;-80
2022/04/29 15:27:06;;;;;;;4.55;3.80;;;;;;;;;;4981873;28;20133;-80
2022/04/29 15:29:34;;;;;;;4.05;3.75;;;;;;;;;;4960793;28;20414;-79
2022/04/29 15:32:03;;;;;;;3.85;3.45;;;;;;;;;;4956533;28;20507;-78
2022/04/29 15:34:31;;;;;;;4.60;3.60;;;;;;;;;;4976078;28;20176;-80
2022/04/29 15:37:02;;;;;;;3.53;3.22;;;;;;;;;;4975790;28;20129;-80
2022/04/29 15:39:30;;;;;;;5.05;4.55;;;;;;;;;;4980757;28;20053;-79
2022/04/29 15:42:01;;;;;;;6.32;4.22;;;;;;;;;;4976736;28;20046;-79
2022/04/29 15:44:28;;;;;;;4.75;4.35;;;;;;;;;;4983830;28;20047;-81
2022/04/29 15:46:56;;;;;;;4.28;3.97;;;;;;;;;;4981948;28;20049;-79
2022/04/29 15:49:23;;;;;;;4.70;4.30;;;;;;;;;;4987673;28;20042;-81
2022/04/29 15:51:51;;;;;;;3.97;3.67;;;;;;;;;;4968949;28;20076;-82
2022/04/29 15:54:19;;;;;;;4.85;4.40;;;;;;;;;;4963874;28;20061;-80
2022/04/29 15:56:48;;;;;;;5.60;5.07;;;;;;;;;;4986381;28;20134;-79
2022/04/29 15:59:16;;;;;;;5.18;4.15;;;;;;;;;;4983102;28;20050;-79
2022/04/29 16:01:44;;;;;;;9.20;4.40;;;;;;;;;;4987522;28;20046;-79
2022/04/29 16:04:12;;;;;;;6.38;4.78;;;;;;;;;;4959307;28;20042;-80
2022/04/29 16:06:40;;;;;;;5.20;4.70;;;;;;;;;;4975979;28;20128;-79
2022/04/29 16:09:08;;;;;;;6.78;4.18;;;;;;;;;;4978823;28;20038;-80
2022/04/29 16:11:35;;;;;;;5.00;4.35;;;;;;;;;;4963424;28;20348;-79
2022/04/29 16:14:04;;;;;;;4.55;4.18;;;;;;;;;;4960271;28;20154;-82
2022/04/29 16:16:31;;;;;;;4.55;3.83;;;;;;;;;;4966602;28;20053;-79
2022/04/29 16:21:45;;;;;;;5.20;3.90;;;;;;;;;;4977885;28;20041;-80
2022/04/29 16:26:58;;;;;;;5.57;4.20;;;;;;;;;;4976845;28;20441;-81
2022/04/29 16:29:26;;;;;;;7.82;4.45;;;;;;;;;;4977149;28;20045;-80
2022/04/29 16:31:55;;;;;;;7.00;4.95;;;;;;;;;;4978173;28;20133;-79
2022/04/29 16:34:24;;;;;;;6.10;5.10;;;;;;;;;;4967207;28;20550;-80
2022/04/29 16:36:55;;;;;;;5.40;4.90;;;;;;;;;;4977597;28;20046;-79
2022/04/29 16:39:47;;;;;;;5.45;4.53;;;;;;;;;;5035864;22;20134;-78
2022/04/29 16:42:55;;;;;;;4.97;4.53;;;;;;;;;;4981841;28;20099;-78
2022/04/29 16:45:46;;;;;;;5.78;4.97;;;;;;;;;;4968198;28;20130;-80
2022/04/29 16:48:38;;;;;;;10.20;4.57;;;;;;;;;;4951592;28;20080;-78
2022/04/29 16:51:21;;;;;;;5.30;4.78;;;;;;;;;;4953435;28;20061;-78
2022/04/29 16:54:52;;;;;;;5.07;4.18;;;;;;;;;;4966406;28;20085;-78
2022/04/29 17:01:47;;;;;;;10.63;6.07;;;;;;;;;;4953655;28;20050;-78
2022/04/29 17:12:04;;;;;;;22.27;12.25;;;;;;;;;;4892336;28;20036;-77
2022/04/29 17:15:13;;;;;;;9.77;6.80;;;;;;;;;;4945705;28;20042;-78
2022/04/29 17:18:30;;;;;;;7.07;5.90;;;;;;;;;;4950750;28;20743;-79
2022/04/29 17:21:08;;;;;;;4.95;4.45;;;;;;;;;;4941188;28;20038;-78
2022/04/29 17:27:41;;;;;;;5.18;4.10;;;;;;;;;;4864927;29;20045;-78
2022/04/29 17:30:15;;;;;;;3.90;3.60;;;;;;;;;;4837552;29;20053;-78
2022/04/29 17:32:54;;;;;;;12.02;8.52;;;;;;;;;;4861678;29;20147;-77
2022/04/29 17:35:52;;;;;;;6.18;5.68;;;;;;;;;;4854789;29;20083;-77
2022/04/29 17:39:04;;;;;;;4.38;4.00;;;;;;;;;;4864247;29;20072;-78
2022/04/29 17:44:53;;;;;;;5.68;4.05;;;;;;;;;;4863418;29;20132;-77
2022/04/29 17:48:09;;;;;;;8.77;6.28;;;;;;;;;;4862039;29;21152;-78
2022/04/29 17:51:05;;;;;;;10.85;8.77;;;;;;;;;;4810469;29;20086;-78
2022/04/29 17:54:09;;;;;;;9.70;8.43;;;;;;;;;;4809541;29;20054;-78
2022/04/29 17:56:49;;;;;;;6.13;5.63;;;;;;;;;;4793628;29;20149;-79
2022/04/29 17:59:27;;;;;;;5.20;4.70;;;;;;;;;;4796438;29;20857;-78
2022/04/29 18:02:54;;;;;;;3.78;3.40;;;;;;;;;;4799009;29;20055;-79
2022/04/29 18:05:45;;;;;;;6.40;4.47;;;;;;;;;;4874612;29;20040;-78
2022/04/29 18:08:46;;;;;;;4.07;3.67;;;;;;;;;;4878216;29;20048;-77
2022/04/29 18:11:36;;;;;;;5.55;3.97;;;;;;;;;;4864772;29;20052;-78
2022/04/29 18:14:04;;;;;;;4.13;3.80;;;;;;;;;;4857530;29;20177;-78
2022/04/29 18:16:32;;;;;;;5.20;4.45;;;;;;;;;;4914540;28;20531;-78
2022/04/29 18:19:00;;;;;;;5.03;4.57;;;;;;;;;;4933186;28;20055;-78
2022/04/29 18:21:28;;;;;;;5.65;5.15;;;;;;;;;;4930274;28;20047;-77
2022/04/29 18:23:55;;;;;;;6.13;4.20;;;;;;;;;;4911386;28;20039;-78
2022/04/29 18:26:22;;;;;;;5.22;4.40;;;;;;;;;;4929275;28;20036;-78